createdAt,value
2023-05-08T00:02:23.319Z,21.73
2023-05-08T00:04:50.348Z,19.15
2023-05-08T00:07:17.428Z,19.73
2023-05-08T00:09:44.502Z,22.02
2023-05-08T00:12:11.423Z,21.15
2023-05-08T00:14:38.450Z,21.20
2023-05-08T00:17:06.176Z,21.55
2023-05-08T00:19:33.284Z,23.23
2023-05-08T00:22:00.300Z,23.52
2023-05-08T00:24:27.236Z,20.30
2023-05-08T00:26:54.194Z,21.17
2023-05-08T00:29:21.193Z,20.95
2023-05-08T00:31:49.468Z,22.55
2023-05-08T00:34:16.594Z,22.17
2023-05-08T00:36:43.746Z,20.23
2023-05-08T00:39:10.774Z,23.52
2023-05-08T00:41:38.128Z,22.77
2023-05-08T00:44:05.182Z,22.90
2023-05-08T00:46:32.139Z,24.35
2023-05-08T00:49:00.161Z,19.70
2023-05-08T00:51:28.118Z,21.00
2023-05-08T00:53:55.372Z,22.25
2023-05-08T00:56:24.005Z,23.80
2023-05-08T00:58:51.368Z,23.60
2023-05-08T01:01:18.959Z,24.33
2023-05-08T01:03:47.583Z,23.13
2023-05-08T01:06:14.621Z,22.75
2023-05-08T01:08:45.482Z,23.92
2023-05-08T01:11:27.960Z,24.52
2023-05-08T01:14:22.602Z,27.13
2023-05-08T01:17:11.855Z,27.27
2023-05-08T01:20:17.988Z,22.27
2023-05-08T01:23:07.268Z,28.40
2023-05-08T01:26:11.749Z,30.60
2023-05-08T01:28:50.761Z,29.73
2023-05-08T01:31:38.934Z,24.17
2023-05-08T01:34:10.625Z,28.40
2023-05-08T01:36:46.858Z,23.05
2023-05-08T01:39:30.390Z,22.67
2023-05-08T01:42:03.614Z,23.35
2023-05-08T01:44:39.090Z,28.25
2023-05-08T01:47:09.180Z,25.52
2023-05-08T01:49:47.443Z,28.23
2023-05-08T01:52:21.326Z,28.08
2023-05-08T01:55:12.719Z,26.90
2023-05-08T01:57:45.178Z,26.88
2023-05-08T02:00:13.824Z,24.88
2023-05-08T02:02:44.004Z,28.92
2023-05-08T02:05:12.634Z,26.95
2023-05-08T02:07:41.291Z,27.65
2023-05-08T02:10:10.094Z,28.08
2023-05-08T02:12:38.999Z,24.92
2023-05-08T02:15:08.416Z,25.70
2023-05-08T02:17:38.148Z,26.77
2023-05-08T02:20:07.754Z,27.95
2023-05-08T02:22:36.509Z,27.67
2023-05-08T02:25:04.545Z,25.17
2023-05-08T02:27:32.077Z,33.70
2023-05-08T02:30:00.656Z,30.65
2023-05-08T02:32:29.961Z,29.40
2023-05-08T02:35:03.113Z,30.98
2023-05-08T02:37:31.770Z,33.97
2023-05-08T02:40:01.647Z,33.95
2023-05-08T02:42:30.462Z,31.73
2023-05-08T02:44:57.694Z,31.90
2023-05-08T02:47:29.885Z,34.50
2023-05-08T02:52:49.331Z,32.65
2023-05-08T02:55:50.806Z,34.13
2023-05-08T02:58:29.878Z,35.65
2023-05-08T03:01:06.765Z,35.10
2023-05-08T03:03:42.163Z,34.67
2023-05-08T03:06:18.749Z,36.60
2023-05-08T03:08:48.659Z,36.50
2023-05-08T03:11:18.178Z,40.25
2023-05-08T03:13:47.079Z,39.05
2023-05-08T03:16:23.217Z,40.67
2023-05-08T03:18:59.800Z,39.67
2023-05-08T03:21:29.419Z,45.10
2023-05-08T03:24:00.658Z,40.45
2023-05-08T03:26:28.049Z,42.03
2023-05-08T03:28:56.993Z,46.65
2023-05-08T03:31:32.341Z,58.45
2023-05-08T03:34:01.078Z,69.95
2023-05-08T03:36:28.924Z,67.15
2023-05-08T03:38:56.859Z,61.97
2023-05-08T03:41:26.092Z,73.00
2023-05-08T03:43:54.937Z,70.10
2023-05-08T03:46:23.561Z,71.60
2023-05-08T03:48:51.731Z,66.95
2023-05-08T03:51:19.583Z,71.43
2023-05-08T03:53:46.691Z,73.63
2023-05-08T03:56:14.468Z,82.60
2023-05-08T03:58:54.511Z,88.97
2023-05-08T04:01:43.504Z,92.78
2023-05-08T04:04:39.827Z,96.57
2023-05-08T04:07:11.089Z,96.35
2023-05-08T04:10:05.558Z,94.38
2023-05-08T04:12:57.409Z,100.45
2023-05-08T04:15:32.097Z,106.70
2023-05-08T04:18:03.698Z,113.05
2023-05-08T04:20:33.725Z,109.57
2023-05-08T04:23:02.251Z,98.05
2023-05-08T04:25:30.982Z,95.85
2023-05-08T04:27:59.174Z,99.25
2023-05-08T04:30:28.685Z,101.20
2023-05-08T04:32:56.963Z,100.43
2023-05-08T04:35:24.442Z,98.03
2023-05-08T04:37:52.484Z,106.05
2023-05-08T04:40:19.793Z,101.82
2023-05-08T04:42:47.849Z,109.55
2023-05-08T04:45:17.689Z,113.85
2023-05-08T04:47:45.042Z,114.63
2023-05-08T04:50:12.302Z,113.55
2023-05-08T04:52:39.432Z,108.80
2023-05-08T04:55:07.538Z,113.88
2023-05-08T04:57:36.674Z,101.70
2023-05-08T05:00:06.393Z,116.53
2023-05-08T05:02:37.688Z,120.28
2023-05-08T05:05:06.294Z,115.82
2023-05-08T05:07:34.582Z,126.22
2023-05-08T05:10:02.483Z,128.35
2023-05-08T05:12:31.342Z,117.90
2023-05-08T05:14:58.728Z,126.90
2023-05-08T05:17:31.196Z,120.80
2023-05-08T05:19:58.789Z,122.43
2023-05-08T05:22:26.451Z,133.73
2023-05-08T05:24:53.479Z,131.80
2023-05-08T05:27:21.499Z,145.93
2023-05-08T05:29:49.324Z,141.13
2023-05-08T05:32:16.703Z,139.68
2023-05-08T05:34:44.323Z,142.05
2023-05-08T05:37:11.542Z,138.27
2023-05-08T05:39:38.613Z,140.75
2023-05-08T05:42:06.442Z,136.05
2023-05-08T05:44:33.620Z,131.57
2023-05-08T05:47:00.962Z,153.00
2023-05-08T05:49:28.193Z,142.68
2023-05-08T05:51:55.668Z,137.68
2023-05-08T05:54:22.956Z,138.57
2023-05-08T05:56:49.960Z,132.27
2023-05-08T05:59:17.593Z,133.43
2023-05-08T06:01:44.888Z,130.18
2023-05-08T06:04:12.068Z,138.50
2023-05-08T06:06:39.920Z,139.23
2023-05-08T06:09:07.303Z,129.18
2023-05-08T06:11:34.365Z,130.63
2023-05-08T06:14:01.334Z,129.45
2023-05-08T06:16:30.709Z,128.93
2023-05-08T06:18:57.840Z,132.57
2023-05-08T06:21:25.779Z,145.05
2023-05-08T06:23:52.784Z,132.60
2023-05-08T06:26:21.487Z,132.63
2023-05-08T06:28:49.704Z,128.52
2023-05-08T06:31:16.801Z,125.35
2023-05-08T06:33:44.063Z,139.13
2023-05-08T06:36:11.806Z,141.30
2023-05-08T06:38:38.859Z,143.70
2023-05-08T06:41:05.841Z,144.13
2023-05-08T06:43:32.899Z,156.07
2023-05-08T06:46:00.002Z,150.98
2023-05-08T06:48:29.339Z,141.73
2023-05-08T06:50:56.719Z,140.32
2023-05-08T06:53:23.734Z,135.32
2023-05-08T06:55:51.472Z,141.38
2023-05-08T06:58:18.457Z,131.85
2023-05-08T07:00:46.193Z,126.53
2023-05-08T07:03:13.306Z,124.97
2023-05-08T07:05:40.365Z,130.95
2023-05-08T07:08:07.527Z,128.43
2023-05-08T07:10:34.732Z,122.00
2023-05-08T07:13:01.776Z,116.80
2023-05-08T07:15:31.539Z,115.93
2023-05-08T07:17:59.717Z,121.63
2023-05-08T07:20:27.065Z,111.70
2023-05-08T07:22:54.233Z,111.78
2023-05-08T07:25:21.160Z,120.72
2023-05-08T07:27:48.300Z,116.05
2023-05-08T07:30:19.505Z,119.93
2023-05-08T07:32:46.700Z,112.38
2023-05-08T07:35:14.161Z,111.25
2023-05-08T07:37:42.686Z,104.43
2023-05-08T07:40:09.975Z,111.10
2023-05-08T07:42:44.212Z,112.80
2023-05-08T07:45:14.513Z,109.68
2023-05-08T07:48:11.913Z,116.28
2023-05-08T07:50:38.881Z,120.20
2023-05-08T07:53:06.627Z,118.72
2023-05-08T07:55:33.709Z,112.43
2023-05-08T07:58:00.753Z,106.82
2023-05-08T08:00:28.461Z,104.90
2023-05-08T08:02:55.573Z,102.72
2023-05-08T08:05:22.941Z,100.53
2023-05-08T08:07:53.469Z,103.32
2023-05-08T08:10:20.835Z,93.53
2023-05-08T08:12:48.002Z,90.75
2023-05-08T08:15:15.950Z,95.85
2023-05-08T08:17:43.123Z,89.53
2023-05-08T08:20:10.798Z,90.97
2023-05-08T08:22:39.159Z,89.35
2023-05-08T08:25:06.544Z,90.15
2023-05-08T08:27:33.504Z,95.43
2023-05-08T08:30:15.749Z,84.50
2023-05-08T08:32:45.892Z,89.97
2023-05-08T08:35:14.577Z,102.57
2023-05-08T08:37:42.277Z,91.45
2023-05-08T08:40:09.861Z,80.60
2023-05-08T08:42:36.926Z,88.70
2023-05-08T08:45:04.405Z,70.90
2023-05-08T08:47:38.087Z,73.05
2023-05-08T08:50:05.918Z,77.18
2023-05-08T08:52:35.632Z,74.65
2023-05-08T08:55:08.183Z,66.70
2023-05-08T08:57:39.688Z,72.10
2023-05-08T09:00:09.360Z,70.43
2023-05-08T09:02:36.579Z,75.15
2023-05-08T09:05:03.902Z,72.20
2023-05-08T09:07:33.062Z,66.70
2023-05-08T09:10:01.932Z,65.35
2023-05-08T09:12:29.052Z,63.55
2023-05-08T09:14:56.125Z,65.65
2023-05-08T09:17:23.321Z,61.55
2023-05-08T09:19:51.654Z,68.03
2023-05-08T09:22:18.785Z,71.60
2023-05-08T09:25:00.980Z,67.70
2023-05-08T09:27:29.817Z,68.70
2023-05-08T09:30:06.555Z,63.22
2023-05-08T09:32:35.987Z,67.60
2023-05-08T09:35:06.476Z,63.05
2023-05-08T09:37:37.247Z,64.70
2023-05-08T09:40:21.894Z,69.03
2023-05-08T09:42:50.552Z,59.53
2023-05-08T09:45:31.949Z,65.60
2023-05-08T09:47:59.337Z,59.08
2023-05-08T09:50:32.014Z,63.58
2023-05-08T09:52:59.186Z,52.17
2023-05-08T09:55:26.086Z,51.42
2023-05-08T09:57:58.613Z,39.65
2023-05-08T10:00:27.625Z,43.40
2023-05-08T10:03:00.150Z,42.92
2023-05-08T10:05:32.320Z,42.17
2023-05-08T10:08:17.469Z,43.67
2023-05-08T10:10:44.449Z,42.30
2023-05-08T10:13:11.956Z,45.13
2023-05-08T10:15:45.809Z,43.15
2023-05-08T10:18:16.995Z,48.17
2023-05-08T10:20:48.889Z,53.13
2023-05-08T10:23:19.231Z,54.47
2023-05-08T10:25:49.786Z,66.40
2023-05-08T10:28:43.210Z,54.60
2023-05-08T10:31:19.030Z,42.42
2023-05-08T10:33:49.708Z,44.65
2023-05-08T10:36:17.352Z,45.05
2023-05-08T10:38:46.038Z,51.25
2023-05-08T10:41:14.295Z,44.78
2023-05-08T10:43:42.970Z,45.65
2023-05-08T10:46:22.702Z,34.42
2023-05-08T10:49:04.710Z,26.33
2023-05-08T10:51:47.217Z,24.70
2023-05-08T10:54:25.240Z,24.02
2023-05-08T10:56:52.240Z,24.05
2023-05-08T10:59:20.536Z,27.15
2023-05-08T11:01:49.539Z,37.55
2023-05-08T11:04:24.740Z,37.60
2023-05-08T11:06:53.580Z,45.28
2023-05-08T11:09:30.541Z,41.45
2023-05-08T11:12:17.946Z,40.20
2023-05-08T11:14:55.628Z,41.15
2023-05-08T11:17:26.565Z,40.83
2023-05-08T11:20:00.317Z,39.78
2023-05-08T11:22:29.806Z,40.55
2023-05-08T11:25:02.253Z,39.63
2023-05-08T11:27:47.304Z,38.53
2023-05-08T11:30:36.774Z,26.85
2023-05-08T11:33:04.040Z,34.30
2023-05-08T11:35:41.918Z,26.50
2023-05-08T11:38:38.600Z,25.75
2023-05-08T11:41:07.310Z,25.30
2023-05-08T11:43:34.248Z,26.83
2023-05-08T11:46:08.688Z,25.70
2023-05-08T11:48:36.447Z,28.63
2023-05-08T11:51:04.166Z,27.40
2023-05-08T11:53:32.586Z,33.85
2023-05-08T11:56:00.681Z,29.80
2023-05-08T11:58:31.021Z,30.42
2023-05-08T12:00:58.175Z,22.65
2023-05-08T12:03:25.880Z,23.10
2023-05-08T12:05:58.065Z,23.83
2023-05-08T12:10:57.016Z,26.85
2023-05-08T12:13:29.886Z,27.38
2023-05-08T12:16:01.272Z,29.55
2023-05-08T12:18:31.178Z,27.60
2023-05-08T12:21:01.144Z,29.65
2023-05-08T12:23:31.934Z,23.05
2023-05-08T12:26:01.560Z,27.92
2023-05-08T12:28:29.396Z,23.73
2023-05-08T12:30:56.837Z,20.70
2023-05-08T12:33:24.828Z,20.42
2023-05-08T12:35:53.266Z,18.05
2023-05-08T12:38:27.478Z,19.70
2023-05-08T12:40:56.234Z,22.30
2023-05-08T12:43:34.258Z,19.90
2023-05-08T12:46:01.823Z,18.77
2023-05-08T12:48:28.988Z,19.90
2023-05-08T12:51:03.904Z,16.88
2023-05-08T12:53:33.376Z,20.98
2023-05-08T12:56:04.706Z,19.92
2023-05-08T12:58:35.576Z,18.55
2023-05-08T13:01:13.660Z,19.33
2023-05-08T13:03:41.561Z,18.45
2023-05-08T13:06:21.221Z,17.38
2023-05-08T13:08:57.605Z,19.90
2023-05-08T13:11:34.505Z,18.40
2023-05-08T13:14:01.761Z,19.48
2023-05-08T13:16:29.255Z,20.88
2023-05-08T13:18:57.727Z,21.25
2023-05-08T13:21:26.595Z,22.58
2023-05-08T13:23:55.171Z,24.02
2023-05-08T13:26:22.168Z,22.17
2023-05-08T13:28:49.111Z,14.73
2023-05-08T13:31:16.139Z,18.13
2023-05-08T13:33:43.054Z,19.35
2023-05-08T13:36:10.311Z,25.65
2023-05-08T13:38:37.681Z,18.40
2023-05-08T13:41:04.765Z,19.20
2023-05-08T13:43:31.736Z,17.73
2023-05-08T13:45:58.804Z,20.30
2023-05-08T13:48:26.056Z,21.70
2023-05-08T13:50:53.722Z,16.65
2023-05-08T13:53:20.964Z,20.35
2023-05-08T13:55:47.980Z,22.02
2023-05-08T13:58:14.929Z,21.67
2023-05-08T14:00:42.382Z,20.88
2023-05-08T14:03:09.515Z,21.23
2023-05-08T14:05:36.518Z,20.80
2023-05-08T14:08:03.597Z,18.38
2023-05-08T14:10:30.803Z,20.83
2023-05-08T14:12:57.750Z,20.38
2023-05-08T14:15:29.169Z,17.05
2023-05-08T14:18:02.188Z,18.63
2023-05-08T14:20:29.280Z,19.95
2023-05-08T14:23:00.073Z,18.00
2023-05-08T14:25:27.730Z,20.02
2023-05-08T14:27:55.953Z,19.52
2023-05-08T14:30:24.325Z,21.33
2023-05-08T14:32:51.352Z,19.48
2023-05-08T14:35:18.697Z,17.17
2023-05-08T14:37:45.847Z,14.75
2023-05-08T14:40:12.894Z,17.38
2023-05-08T14:42:42.695Z,19.25
2023-05-08T14:45:11.075Z,19.92
2023-05-08T14:47:38.943Z,15.35
2023-05-08T14:50:06.528Z,13.98
2023-05-08T14:52:33.783Z,19.95
2023-05-08T14:55:01.242Z,18.30
2023-05-08T14:57:30.161Z,19.25
2023-05-08T14:59:57.143Z,15.45
2023-05-08T15:02:27.853Z,19.15
2023-05-08T15:05:10.783Z,23.17
2023-05-08T15:07:39.561Z,22.20
2023-05-08T15:10:08.931Z,21.27
2023-05-08T15:12:36.890Z,19.50
2023-05-08T15:15:04.688Z,19.05
2023-05-08T15:17:37.131Z,19.67
2023-05-08T15:20:05.562Z,19.98
2023-05-08T15:22:32.565Z,21.40
2023-05-08T15:25:02.785Z,20.33
2023-05-08T15:27:30.537Z,19.42
2023-05-08T15:29:58.457Z,18.10
2023-05-08T15:32:27.052Z,21.13
2023-05-08T15:34:55.000Z,20.15
2023-05-08T15:37:22.048Z,15.45
2023-05-08T15:39:50.543Z,18.88
2023-05-08T15:42:17.537Z,17.65
2023-05-08T15:47:22.177Z,19.63
2023-05-08T15:49:51.256Z,18.40
2023-05-08T15:52:18.693Z,17.15
2023-05-08T15:54:49.777Z,17.55
2023-05-08T15:57:17.359Z,20.00
2023-05-08T15:59:45.660Z,17.45
2023-05-08T16:02:12.749Z,19.23
2023-05-08T16:04:39.888Z,19.27
2023-05-08T16:07:07.333Z,18.35
2023-05-08T16:09:34.444Z,19.95
2023-05-08T16:12:01.483Z,23.45
2023-05-08T16:14:28.420Z,17.17
2023-05-08T16:16:55.735Z,19.17
2023-05-08T16:19:23.145Z,16.98
2023-05-08T16:21:51.568Z,15.55
2023-05-08T16:24:18.579Z,15.77
2023-05-08T16:26:45.625Z,15.88
2023-05-08T16:29:12.582Z,18.77
2023-05-08T16:31:39.588Z,15.88
2023-05-08T16:34:06.640Z,17.52
2023-05-08T16:36:33.640Z,20.92
2023-05-08T16:39:00.586Z,19.75
2023-05-08T16:41:28.050Z,17.60
2023-05-08T16:43:56.142Z,17.98
2023-05-08T16:46:29.854Z,17.98
2023-05-08T16:48:59.773Z,21.27
2023-05-08T16:51:27.786Z,24.42
2023-05-08T16:53:56.099Z,23.42
2023-05-08T16:56:24.989Z,21.48
2023-05-08T16:58:51.970Z,28.58
2023-05-08T17:01:19.217Z,25.55
2023-05-08T17:03:46.921Z,30.85
2023-05-08T17:06:13.964Z,34.08
2023-05-08T17:08:41.997Z,32.67
2023-05-08T17:11:09.141Z,34.05
2023-05-08T17:13:36.160Z,37.97
2023-05-08T17:16:03.190Z,37.22
2023-05-08T17:18:30.432Z,40.47
2023-05-08T17:20:59.279Z,37.83
2023-05-08T17:23:26.266Z,43.75
2023-05-08T17:26:00.699Z,42.78
2023-05-08T17:28:27.833Z,46.95
2023-05-08T17:30:55.994Z,42.58
2023-05-08T17:33:26.680Z,43.75
2023-05-08T17:35:53.846Z,38.67
2023-05-08T17:38:21.141Z,39.85
2023-05-08T17:40:48.285Z,45.03
2023-05-08T17:43:15.306Z,37.22
2023-05-08T17:45:43.821Z,41.08
2023-05-08T17:48:11.080Z,39.20
2023-05-08T17:50:42.292Z,36.25
2023-05-08T17:53:09.324Z,41.72
2023-05-08T17:55:40.963Z,36.13
2023-05-08T17:58:09.057Z,33.90
2023-05-08T18:00:37.809Z,32.17
2023-05-08T18:03:05.176Z,30.77
2023-05-08T18:05:35.419Z,30.38
2023-05-08T18:08:03.280Z,39.03
2023-05-08T18:10:30.596Z,30.40
2023-05-08T18:13:01.979Z,25.20
2023-05-08T18:15:29.211Z,31.50
2023-05-08T18:17:56.482Z,32.83
2023-05-08T18:20:23.647Z,28.17
2023-05-08T18:22:50.808Z,33.05
2023-05-08T18:25:17.971Z,29.58
2023-05-08T18:27:47.760Z,30.20
2023-05-08T18:30:17.053Z,27.88
2023-05-08T18:32:44.363Z,27.80
2023-05-08T18:35:12.239Z,34.20
2023-05-08T18:37:39.353Z,29.00
2023-05-08T18:40:07.003Z,30.08
2023-05-08T18:42:34.017Z,29.77
2023-05-08T18:45:01.287Z,39.78
2023-05-08T18:47:28.598Z,30.52
2023-05-08T18:49:57.870Z,29.45
2023-05-08T18:52:27.305Z,30.83
2023-05-08T18:54:55.143Z,31.17
2023-05-08T18:57:22.162Z,29.63
2023-05-08T18:59:49.171Z,29.45
2023-05-08T19:02:16.289Z,35.35
2023-05-08T19:04:44.668Z,32.92
2023-05-08T19:07:11.674Z,29.67
2023-05-08T19:09:44.758Z,32.15
2023-05-08T19:12:13.343Z,27.13
2023-05-08T19:14:40.594Z,25.63
2023-05-08T19:17:07.643Z,27.35
2023-05-08T19:19:34.738Z,34.53
2023-05-08T19:22:01.796Z,30.63
2023-05-08T19:24:31.954Z,26.10
2023-05-08T19:26:59.202Z,29.75
2023-05-08T19:29:27.292Z,25.90
2023-05-08T19:31:56.555Z,27.65
2023-05-08T19:34:24.208Z,31.73
2023-05-08T19:36:51.436Z,25.95
2023-05-08T19:39:19.113Z,27.13
2023-05-08T19:41:47.990Z,27.27
2023-05-08T19:44:16.322Z,29.73
2023-05-08T19:46:44.476Z,24.75
2023-05-08T19:49:14.132Z,25.55
2023-05-08T19:51:41.293Z,23.25
2023-05-08T19:54:08.430Z,23.10
2023-05-08T19:56:36.157Z,24.08
2023-05-08T19:59:03.180Z,24.05
2023-05-08T20:01:32.991Z,21.45
2023-05-08T20:04:01.003Z,22.85
2023-05-08T20:06:30.195Z,25.63
2023-05-08T20:08:57.440Z,20.02
2023-05-08T20:11:25.147Z,22.33
2023-05-08T20:13:54.083Z,20.08
2023-05-08T20:16:21.291Z,20.15
2023-05-08T20:18:48.910Z,30.63
2023-05-08T20:21:16.244Z,20.45
2023-05-08T20:23:44.022Z,20.77
2023-05-08T20:26:12.464Z,21.77
2023-05-08T20:28:40.445Z,22.13
2023-05-08T20:31:07.800Z,27.67
2023-05-08T20:33:35.060Z,21.05
2023-05-08T20:36:07.644Z,21.92
2023-05-08T20:38:36.870Z,24.37
2023-05-08T20:41:05.050Z,25.38
2023-05-08T20:43:32.359Z,19.55
2023-05-08T20:45:59.574Z,21.30
2023-05-08T20:48:27.893Z,25.30
2023-05-08T20:50:55.002Z,21.73
2023-05-08T20:53:21.976Z,22.50
2023-05-08T20:55:49.383Z,23.27
2023-05-08T20:58:16.390Z,25.35
2023-05-08T21:00:43.332Z,22.58
2023-05-08T21:03:10.370Z,19.90
2023-05-08T21:05:40.395Z,20.95
2023-05-08T21:08:08.752Z,22.63
2023-05-08T21:10:35.707Z,19.50
2023-05-08T21:13:03.551Z,19.00
2023-05-08T21:15:30.876Z,22.42
2023-05-08T21:17:58.073Z,19.23
2023-05-08T21:20:26.813Z,17.33
2023-05-08T21:22:53.873Z,18.90
2023-05-08T21:25:22.139Z,15.30
2023-05-08T21:27:50.414Z,16.58
2023-05-08T21:30:17.593Z,17.00
2023-05-08T21:32:45.733Z,15.18
2023-05-08T21:35:13.929Z,19.17
2023-05-08T21:37:41.146Z,17.33
2023-05-08T21:40:09.524Z,16.15
2023-05-08T21:42:36.884Z,13.82
2023-05-08T21:45:04.045Z,11.48
2023-05-08T21:47:31.045Z,11.90
2023-05-08T21:49:58.073Z,11.70
2023-05-08T21:52:27.469Z,11.23
2023-05-08T21:54:54.451Z,10.95
2023-05-08T21:57:21.619Z,12.10
2023-05-08T21:59:52.539Z,11.07
2023-05-08T22:02:20.146Z,14.15
2023-05-08T22:04:47.234Z,11.95
2023-05-08T22:07:22.046Z,13.00
2023-05-08T22:09:51.685Z,9.23
2023-05-08T22:12:19.024Z,10.77
2023-05-08T22:14:45.930Z,12.30
2023-05-08T22:17:13.177Z,10.52
2023-05-08T22:19:40.120Z,11.50
2023-05-08T22:22:07.424Z,9.70
2023-05-08T22:24:34.433Z,11.65
2023-05-08T22:27:01.449Z,12.18
2023-05-08T22:29:28.337Z,11.80
2023-05-08T22:31:56.158Z,9.48
2023-05-08T22:34:23.229Z,12.90
2023-05-08T22:36:50.256Z,12.00
2023-05-08T22:39:17.250Z,11.98
2023-05-08T22:41:44.330Z,12.00
2023-05-08T22:44:11.349Z,15.00
2023-05-08T22:46:38.911Z,10.73
2023-05-08T22:49:06.186Z,12.32
2023-05-08T22:51:33.358Z,11.68
2023-05-08T22:54:00.430Z,12.77
2023-05-08T22:56:27.478Z,12.68
2023-05-08T22:58:55.308Z,10.55
2023-05-08T23:01:22.934Z,11.93
2023-05-08T23:03:54.228Z,8.82
2023-05-08T23:06:21.554Z,12.02
2023-05-08T23:08:48.738Z,10.55
2023-05-08T23:11:15.926Z,12.10
2023-05-08T23:13:42.960Z,12.30
2023-05-08T23:16:09.908Z,12.77
2023-05-08T23:18:36.965Z,13.48
2023-05-08T23:21:08.137Z,13.10
2023-05-08T23:23:36.688Z,13.63
2023-05-08T23:26:05.455Z,13.00
2023-05-08T23:28:36.040Z,12.45
2023-05-08T23:31:03.944Z,13.80
2023-05-08T23:33:31.096Z,14.82
2023-05-08T23:35:59.606Z,13.07
2023-05-08T23:38:27.866Z,15.13
2023-05-08T23:40:54.992Z,13.10
2023-05-08T23:43:21.935Z,14.88
2023-05-08T23:45:49.407Z,13.82
2023-05-08T23:48:17.133Z,12.25
2023-05-08T23:50:44.164Z,12.65
2023-05-08T23:53:13.184Z,13.13
2023-05-08T23:55:40.220Z,14.60
2023-05-08T23:58:07.637Z,15.15
